Terminal Aerodrome Forecast
Issued by NWS

Home | Current Version | Previous Version | Text Only | Print | Product List | Glossary On
Versions: 1 2 3 4 5 6 7 8 9 10 11 12 13 14 15 16 17 18 19 20
000
FTUS46 KMTR 202300
TAFSNS
TAF
KSNS 202330Z 2100/2124 27010KT P6SM BKN027 OVC040
     FM210300 27005KT P6SM FEW025 BKN050
     FM210700 VRB03KT P6SM SCT050
     FM211600 14004KT P6SM SKC
     FM212000 28013KT P6SM SKC=

USA.gov is the U.S. government's official web portal to all federal, state and local government web resources and services.